createdAt,value
2019-02-17T00:00:50.362Z,0.50
2019-02-17T00:03:19.573Z,0.50
2019-02-17T00:05:48.726Z,0.50
2019-02-17T00:08:17.953Z,0.50
2019-02-17T00:10:47.079Z,0.40
2019-02-17T00:13:16.233Z,0.40
2019-02-17T00:15:45.282Z,0.30
2019-02-17T00:18:14.399Z,0.30
2019-02-17T00:20:43.510Z,0.30
2019-02-17T00:23:12.712Z,0.30
2019-02-17T00:25:41.828Z,0.20
2019-02-17T00:28:10.835Z,0.20
2019-02-17T00:30:40.032Z,0.20
2019-02-17T00:33:09.200Z,0.20
2019-02-17T00:35:38.289Z,0.20
2019-02-17T00:38:07.322Z,0.20
2019-02-17T00:40:36.463Z,0.20
2019-02-17T00:43:05.730Z,0.20
2019-02-17T00:45:34.890Z,0.20
2019-02-17T00:48:04.080Z,0.20
2019-02-17T00:50:33.294Z,0.20
2019-02-17T00:53:02.442Z,0.10
2019-02-17T00:55:31.603Z,0.10
2019-02-17T00:58:00.753Z,0.00
2019-02-17T01:00:29.836Z,0.00
2019-02-17T01:02:58.992Z,0.00
2019-02-17T01:05:28.159Z,-0.10
2019-02-17T01:07:57.337Z,-0.10
2019-02-17T01:10:26.418Z,-0.10
2019-02-17T01:12:55.549Z,-0.10
2019-02-17T01:15:24.712Z,-0.20
2019-02-17T01:17:53.794Z,-0.20
2019-02-17T01:20:22.773Z,-0.20
2019-02-17T01:22:51.815Z,-0.20
2019-02-17T01:25:21.013Z,-0.30
2019-02-17T01:27:50.260Z,-0.30
2019-02-17T01:30:22.513Z,-0.40
2019-02-17T01:32:51.603Z,-0.40
2019-02-17T01:35:20.846Z,-0.40
2019-02-17T01:37:49.914Z,-0.40
2019-02-17T01:40:19.171Z,-0.50
2019-02-17T01:42:48.403Z,-0.50
2019-02-17T01:45:17.542Z,-0.50
2019-02-17T01:47:46.762Z,-0.60
2019-02-17T01:50:15.866Z,-0.60
2019-02-17T01:52:44.964Z,-0.60
2019-02-17T01:55:14.077Z,-0.60
2019-02-17T01:57:43.295Z,-0.60
2019-02-17T02:00:13.075Z,-0.60
2019-02-17T02:02:42.340Z,-0.60
2019-02-17T02:05:11.405Z,-0.60
2019-02-17T02:07:40.597Z,-0.60
2019-02-17T02:10:09.760Z,-0.60
2019-02-17T02:12:38.923Z,-0.60
2019-02-17T02:15:08.463Z,-0.70
2019-02-17T02:17:37.899Z,-0.60
2019-02-17T02:20:08.527Z,-0.70
2019-02-17T02:22:37.632Z,-0.70
2019-02-17T02:25:07.007Z,-0.80
2019-02-17T02:27:36.114Z,-0.80
2019-02-17T02:30:06.956Z,-0.80
2019-02-17T02:32:36.311Z,-0.80
2019-02-17T02:35:05.742Z,-0.90
2019-02-17T02:37:34.919Z,-0.90
2019-02-17T02:40:04.173Z,-0.90
2019-02-17T02:42:33.297Z,-0.90
2019-02-17T02:45:02.491Z,-1.00
2019-02-17T02:47:31.635Z,-1.00
2019-02-17T02:50:00.921Z,-1.00
2019-02-17T02:52:30.148Z,-1.00
2019-02-17T02:54:59.335Z,-1.00
2019-02-17T02:57:28.515Z,-1.00
2019-02-17T02:59:57.687Z,-1.10
2019-02-17T03:02:26.935Z,-1.10
2019-02-17T03:04:56.003Z,-1.10
2019-02-17T03:07:25.189Z,-1.00
2019-02-17T03:09:54.407Z,-1.00
2019-02-17T03:12:23.619Z,-1.00
2019-02-17T03:14:52.697Z,-1.00
2019-02-17T03:17:21.777Z,-1.00
2019-02-17T03:19:50.879Z,-1.10
2019-02-17T03:22:19.970Z,-1.10
2019-02-17T03:24:49.087Z,-1.10
2019-02-17T03:27:18.110Z,-1.10
2019-02-17T03:29:47.202Z,-1.20
2019-02-17T03:32:16.177Z,-1.20
2019-02-17T03:34:45.217Z,-1.20
2019-02-17T03:37:14.294Z,-1.20
2019-02-17T03:39:43.388Z,-1.20
2019-02-17T03:42:12.418Z,-1.20
2019-02-17T03:44:41.569Z,-1.20
2019-02-17T03:47:10.461Z,-1.20
2019-02-17T03:49:39.547Z,-1.30
2019-02-17T03:52:08.618Z,-1.30
2019-02-17T03:54:37.742Z,-1.30
2019-02-17T03:57:06.943Z,-1.30
2019-02-17T03:59:36.160Z,-1.40
2019-02-17T04:02:05.267Z,-1.40
2019-02-17T04:04:34.444Z,-1.40
2019-02-17T04:07:03.604Z,-1.50
2019-02-17T04:09:32.717Z,-1.50
2019-02-17T04:12:01.766Z,-1.50
2019-02-17T04:14:30.833Z,-1.50
2019-02-17T04:16:59.975Z,-1.50
2019-02-17T04:19:28.996Z,-1.50
2019-02-17T04:21:58.275Z,-1.50
2019-02-17T04:24:27.219Z,-1.50
2019-02-17T04:26:56.204Z,-1.40
2019-02-17T04:29:25.202Z,-1.40
2019-02-17T04:31:54.311Z,-1.40
2019-02-17T04:34:23.339Z,-1.40
2019-02-17T04:36:52.434Z,-1.40
2019-02-17T04:39:21.537Z,-1.40
2019-02-17T04:41:50.608Z,-1.40
2019-02-17T04:44:19.804Z,-1.40
2019-02-17T04:46:48.872Z,-1.40
2019-02-17T04:49:17.956Z,-1.40
2019-02-17T04:51:47.024Z,-1.40
2019-02-17T04:54:16.129Z,-1.30
2019-02-17T04:56:45.148Z,-1.20
2019-02-17T04:59:14.239Z,-1.20
2019-02-17T05:01:43.383Z,-1.20
2019-02-17T05:04:12.424Z,-1.20
2019-02-17T05:06:41.467Z,-1.20
2019-02-17T05:09:10.387Z,-1.30
2019-02-17T05:11:39.465Z,-1.30
2019-02-17T05:14:08.613Z,-1.30
2019-02-17T05:16:37.685Z,-1.30
2019-02-17T05:19:06.752Z,-1.40
2019-02-17T05:21:35.871Z,-1.40
2019-02-17T05:24:05.032Z,-1.50
2019-02-17T05:26:34.117Z,-1.50
2019-02-17T05:29:03.292Z,-1.50
2019-02-17T05:31:32.378Z,-1.50
2019-02-17T05:34:01.493Z,-1.50
2019-02-17T05:36:30.495Z,-1.60
2019-02-17T05:39:00.029Z,-1.50
2019-02-17T05:41:29.131Z,-1.50
2019-02-17T05:43:58.203Z,-1.50
2019-02-17T05:46:27.225Z,-1.50
2019-02-17T05:48:56.139Z,-1.50
2019-02-17T05:51:25.227Z,-1.50
2019-02-17T05:53:54.216Z,-1.50
2019-02-17T05:56:23.317Z,-1.60
2019-02-17T05:58:52.430Z,-1.60
2019-02-17T06:01:21.685Z,-1.60
2019-02-17T06:03:50.792Z,-1.60
2019-02-17T06:06:20.002Z,-1.60
2019-02-17T06:08:49.122Z,-1.60
2019-02-17T06:11:18.124Z,-1.60
2019-02-17T06:13:47.206Z,-1.60
2019-02-17T06:16:16.395Z,-1.60
2019-02-17T06:18:45.422Z,-1.60
2019-02-17T06:21:14.476Z,-1.70
2019-02-17T06:23:43.600Z,-1.60
2019-02-17T06:26:12.701Z,-1.60
2019-02-17T06:28:41.713Z,-1.60
2019-02-17T06:31:14.313Z,-1.60
2019-02-17T06:33:41.626Z,-1.70
2019-02-17T06:36:10.618Z,-1.60
2019-02-17T06:38:39.669Z,-1.70
2019-02-17T06:41:08.741Z,-1.60
2019-02-17T06:43:37.732Z,-1.60
2019-02-17T06:46:06.909Z,-1.60
2019-02-17T06:48:35.964Z,-1.60
2019-02-17T06:51:05.135Z,-1.60
2019-02-17T06:53:34.293Z,-1.60
2019-02-17T06:56:14.783Z,-1.60
2019-02-17T06:58:45.742Z,-1.60
2019-02-17T07:01:24.130Z,-1.60
2019-02-17T07:03:45.563Z,-1.50
2019-02-17T07:06:36.691Z,-1.50
2019-02-17T07:09:06.858Z,-1.40
2019-02-17T07:11:35.973Z,-1.30
2019-02-17T07:14:05.382Z,-1.30
2019-02-17T07:16:34.582Z,-1.20
2019-02-17T07:19:03.739Z,-1.10
2019-02-17T07:21:32.890Z,-1.00
2019-02-17T07:24:02.105Z,-0.90
2019-02-17T07:26:31.160Z,-0.80
2019-02-17T07:29:00.255Z,-0.70
2019-02-17T07:31:34.869Z,-0.60
2019-02-17T07:34:00.178Z,-0.40
2019-02-17T07:36:29.395Z,-0.20
2019-02-17T07:38:58.784Z,0.10
2019-02-17T07:41:27.995Z,0.50
2019-02-17T07:43:57.174Z,0.80
2019-02-17T07:46:26.364Z,1.10
2019-02-17T07:48:55.439Z,1.30
2019-02-17T07:51:24.748Z,1.60
2019-02-17T07:53:53.884Z,1.70
2019-02-17T07:56:23.038Z,1.90
2019-02-17T07:58:52.178Z,2.10
2019-02-17T08:01:21.179Z,2.30
2019-02-17T08:03:50.224Z,2.50
2019-02-17T08:06:19.298Z,2.70
2019-02-17T08:08:48.371Z,2.90
2019-02-17T08:11:17.370Z,3.10
2019-02-17T08:13:46.495Z,3.20
2019-02-17T08:16:15.675Z,3.40
2019-02-17T08:18:44.791Z,3.50
2019-02-17T08:21:13.868Z,3.50
2019-02-17T08:23:42.751Z,3.60
2019-02-17T08:26:11.854Z,3.80
2019-02-17T08:28:42.544Z,4.00
2019-02-17T08:31:11.685Z,4.20
2019-02-17T08:33:40.667Z,4.40
2019-02-17T08:36:09.650Z,4.50
2019-02-17T08:38:38.696Z,4.60
2019-02-17T08:41:07.783Z,4.70
2019-02-17T08:43:36.667Z,4.90
2019-02-17T08:46:05.781Z,5.10
2019-02-17T08:48:34.784Z,5.40
2019-02-17T08:51:03.680Z,5.70
2019-02-17T08:53:32.850Z,6.10
2019-02-17T08:56:01.830Z,6.50
2019-02-17T08:58:30.914Z,6.80
2019-02-17T09:00:59.975Z,7.10
2019-02-17T09:03:28.967Z,7.40
2019-02-17T09:05:58.055Z,7.90
2019-02-17T09:08:27.130Z,8.30
2019-02-17T09:10:56.230Z,8.60
2019-02-17T09:13:25.307Z,8.80
2019-02-17T09:15:54.278Z,9.00
2019-02-17T09:18:23.339Z,9.10
2019-02-17T09:20:52.236Z,9.00
2019-02-17T09:23:21.172Z,9.20
2019-02-17T09:25:50.382Z,9.40
2019-02-17T09:28:19.428Z,9.40
2019-02-17T09:30:48.641Z,9.20
2019-02-17T09:33:17.778Z,9.40
2019-02-17T09:35:46.828Z,9.40
2019-02-17T09:38:17.227Z,9.90
2019-02-17T09:40:46.325Z,10.00
2019-02-17T09:43:15.456Z,9.90
2019-02-17T09:45:44.501Z,10.00
2019-02-17T09:48:13.664Z,10.20
2019-02-17T09:50:42.741Z,10.30
2019-02-17T09:53:11.886Z,10.30
2019-02-17T09:55:41.023Z,10.60
2019-02-17T09:58:11.233Z,10.80
2019-02-17T10:00:40.334Z,11.00
2019-02-17T10:03:09.472Z,11.10
2019-02-17T10:05:38.672Z,11.30
2019-02-17T10:08:07.796Z,11.60
2019-02-17T10:10:36.797Z,11.70
2019-02-17T10:13:07.502Z,11.60
2019-02-17T10:15:36.597Z,11.60
2019-02-17T10:18:09.017Z,11.80
2019-02-17T10:20:41.047Z,12.40
2019-02-17T10:23:10.035Z,12.70
2019-02-17T10:25:39.037Z,13.10
2019-02-17T10:28:09.833Z,13.50
2019-02-17T10:30:38.941Z,13.90
2019-02-17T10:33:08.343Z,13.70
2019-02-17T10:35:37.471Z,13.90
2019-02-17T10:38:06.594Z,13.70
2019-02-17T10:40:35.577Z,14.10
2019-02-17T10:43:04.891Z,14.40
2019-02-17T10:45:34.064Z,14.40
2019-02-17T10:48:05.972Z,14.80
2019-02-17T10:50:36.717Z,15.20
2019-02-17T10:53:05.815Z,15.20
2019-02-17T10:55:34.886Z,15.00
2019-02-17T10:58:06.599Z,15.20
2019-02-17T11:00:35.719Z,15.30
2019-02-17T11:03:08.124Z,15.50
2019-02-17T11:05:37.212Z,15.70
2019-02-17T11:08:06.295Z,15.70
2019-02-17T11:10:35.372Z,15.40
2019-02-17T11:13:04.596Z,15.40
2019-02-17T11:15:33.857Z,14.70
2019-02-17T11:18:02.937Z,14.70
2019-02-17T11:20:31.941Z,15.00
2019-02-17T11:23:01.058Z,15.20
2019-02-17T11:25:30.279Z,15.40
2019-02-17T11:27:59.299Z,15.30
2019-02-17T11:30:28.400Z,14.50
2019-02-17T11:32:58.374Z,14.50
2019-02-17T11:35:29.768Z,14.30
2019-02-17T11:37:58.489Z,14.20
2019-02-17T11:40:27.561Z,14.20
2019-02-17T11:42:58.069Z,14.00
2019-02-17T11:45:27.521Z,13.80
2019-02-17T11:47:56.655Z,13.90
2019-02-17T11:50:28.656Z,13.90
2019-02-17T11:52:57.859Z,13.80
2019-02-17T11:55:26.955Z,13.90
2019-02-17T11:57:56.087Z,14.00
2019-02-17T12:00:26.994Z,14.20
2019-02-17T12:02:56.012Z,14.20
2019-02-17T12:05:25.217Z,14.20
2019-02-17T12:07:54.283Z,14.20
2019-02-17T12:10:23.379Z,14.20
2019-02-17T12:12:52.536Z,14.20
2019-02-17T12:15:21.643Z,14.20
2019-02-17T12:17:50.862Z,14.10
2019-02-17T12:20:37.953Z,14.00
2019-02-17T12:23:11.162Z,14.10
2019-02-17T12:25:59.634Z,14.00
2019-02-17T12:28:47.252Z,14.20
2019-02-17T12:31:22.403Z,14.30
2019-02-17T12:33:53.002Z,14.40
2019-02-17T12:36:22.082Z,14.60
2019-02-17T12:38:51.323Z,14.90
2019-02-17T12:41:20.392Z,15.50
2019-02-17T12:43:49.690Z,15.80
2019-02-17T12:46:18.967Z,16.10
2019-02-17T12:48:48.233Z,16.40
2019-02-17T12:51:17.410Z,16.80
2019-02-17T12:53:47.865Z,17.20
2019-02-17T12:56:17.322Z,17.90
2019-02-17T12:58:46.470Z,18.20
2019-02-17T13:01:18.899Z,17.80
2019-02-17T13:03:47.938Z,18.30
2019-02-17T13:06:17.063Z,18.80
2019-02-17T13:08:46.261Z,18.90
2019-02-17T13:11:17.334Z,18.90
2019-02-17T13:13:46.404Z,18.90
2019-02-17T13:16:15.687Z,19.10
2019-02-17T13:18:44.795Z,19.80
2019-02-17T13:21:13.916Z,20.00
2019-02-17T13:23:43.038Z,20.20
2019-02-17T13:26:12.165Z,20.50
2019-02-17T13:28:41.263Z,21.00
2019-02-17T13:31:11.565Z,21.40
2019-02-17T13:33:43.362Z,21.40
2019-02-17T13:36:12.557Z,21.60
2019-02-17T13:38:41.641Z,21.70
2019-02-17T13:41:10.611Z,21.80
2019-02-17T13:43:39.688Z,22.10
2019-02-17T13:46:08.720Z,22.10
2019-02-17T13:48:37.887Z,22.20
2019-02-17T13:51:06.948Z,22.40
2019-02-17T13:53:36.010Z,22.30
2019-02-17T13:56:05.216Z,21.90
2019-02-17T13:58:34.236Z,22.10
2019-02-17T14:01:03.335Z,21.90
2019-02-17T14:03:32.486Z,21.80
2019-02-17T14:06:07.328Z,21.90
2019-02-17T14:08:36.485Z,21.50
2019-02-17T14:11:05.582Z,21.20
2019-02-17T14:13:34.678Z,21.00
2019-02-17T14:16:03.715Z,20.80
2019-02-17T14:18:32.705Z,21.10
2019-02-17T14:21:01.890Z,21.10
2019-02-17T14:23:30.869Z,21.40
2019-02-17T14:25:59.970Z,21.20
2019-02-17T14:28:29.095Z,21.20
2019-02-17T14:30:58.067Z,21.10
2019-02-17T14:33:27.237Z,20.90
2019-02-17T14:35:57.642Z,21.10
2019-02-17T14:38:26.744Z,20.90
2019-02-17T14:40:55.722Z,20.70
2019-02-17T14:43:24.853Z,20.70
2019-02-17T14:45:53.913Z,20.90
2019-02-17T14:48:23.570Z,21.00
2019-02-17T14:50:52.711Z,20.90
2019-02-17T14:53:21.841Z,20.90
2019-02-17T14:55:50.917Z,21.00
2019-02-17T14:58:20.039Z,20.80
2019-02-17T15:00:49.200Z,20.70
2019-02-17T15:03:18.296Z,20.60
2019-02-17T15:05:47.598Z,20.20
2019-02-17T15:08:16.665Z,20.40
2019-02-17T15:10:45.790Z,20.50
2019-02-17T15:13:16.397Z,20.30
2019-02-17T15:15:45.442Z,20.10
2019-02-17T15:18:14.576Z,19.90
2019-02-17T15:20:43.643Z,19.70
2019-02-17T15:23:12.796Z,19.40
2019-02-17T15:25:41.883Z,19.20
2019-02-17T15:28:11.131Z,18.80
2019-02-17T15:30:40.236Z,18.40
2019-02-17T15:33:09.436Z,18.10
2019-02-17T15:35:38.505Z,17.70
2019-02-17T15:38:07.494Z,17.40
2019-02-17T15:40:36.607Z,17.20
2019-02-17T15:43:05.790Z,16.90
2019-02-17T15:45:34.972Z,16.60
2019-02-17T15:48:04.066Z,16.40
2019-02-17T15:50:33.187Z,16.10
2019-02-17T15:53:02.352Z,15.90
2019-02-17T15:55:31.440Z,15.80
2019-02-17T15:58:00.456Z,15.60
2019-02-17T16:00:29.599Z,15.50
2019-02-17T16:02:58.704Z,15.40
2019-02-17T16:05:27.970Z,15.30
2019-02-17T16:07:58.966Z,15.10
2019-02-17T16:10:28.145Z,15.00
2019-02-17T16:12:57.236Z,14.80
2019-02-17T16:15:26.435Z,14.70
2019-02-17T16:17:55.649Z,14.50
2019-02-17T16:20:24.751Z,14.30
2019-02-17T16:22:53.890Z,14.20
2019-02-17T16:25:23.128Z,14.00
2019-02-17T16:27:52.262Z,13.90
2019-02-17T16:30:21.427Z,13.80
2019-02-17T16:32:50.637Z,13.60
2019-02-17T16:35:19.787Z,13.50
2019-02-17T16:37:48.859Z,13.30
2019-02-17T16:40:18.153Z,13.20
2019-02-17T16:42:47.406Z,13.00
2019-02-17T16:45:16.565Z,12.90
2019-02-17T16:47:45.944Z,12.70
2019-02-17T16:50:17.221Z,12.60
2019-02-17T16:52:46.396Z,12.40
2019-02-17T16:55:15.496Z,12.30
2019-02-17T16:57:44.553Z,12.20
2019-02-17T17:00:18.148Z,12.00
2019-02-17T17:02:47.357Z,11.90
2019-02-17T17:05:16.665Z,11.70
2019-02-17T17:07:46.211Z,11.60
2019-02-17T17:10:15.419Z,11.40
2019-02-17T17:12:44.594Z,11.30
2019-02-17T17:15:14.397Z,11.20
2019-02-17T17:17:43.487Z,11.00
2019-02-17T17:20:13.169Z,10.90
2019-02-17T17:22:42.415Z,10.70
2019-02-17T17:25:11.580Z,10.50
2019-02-17T17:27:41.400Z,10.20
2019-02-17T17:30:11.522Z,10.00
2019-02-17T17:32:41.261Z,9.80
2019-02-17T17:35:10.707Z,9.60
2019-02-17T17:37:39.824Z,9.50
2019-02-17T17:40:10.226Z,9.40
2019-02-17T17:42:39.977Z,9.30
2019-02-17T17:45:11.291Z,9.10
2019-02-17T17:47:40.799Z,9.00
2019-02-17T17:50:11.555Z,8.90
2019-02-17T17:52:40.809Z,8.70
2019-02-17T17:55:10.139Z,8.60
2019-02-17T17:57:39.422Z,8.40
2019-02-17T18:00:10.195Z,8.30
2019-02-17T18:02:39.299Z,8.10
2019-02-17T18:05:09.564Z,8.00
2019-02-17T18:07:39.227Z,7.90
2019-02-17T18:10:10.127Z,7.80
2019-02-17T18:12:39.276Z,7.70
2019-02-17T18:15:09.854Z,7.70
2019-02-17T18:17:39.015Z,7.60
2019-02-17T18:20:09.251Z,7.50
2019-02-17T18:22:38.298Z,7.40
2019-02-17T18:25:07.669Z,7.30
2019-02-17T18:27:36.864Z,7.20
2019-02-17T18:30:06.391Z,7.10
2019-02-17T18:32:36.439Z,7.00
2019-02-17T18:35:05.762Z,6.90
2019-02-17T18:37:34.964Z,6.80
2019-02-17T18:40:04.242Z,6.70
2019-02-17T18:42:33.386Z,6.60
2019-02-17T18:45:02.598Z,6.50
2019-02-17T18:47:31.871Z,6.40
2019-02-17T18:50:00.839Z,6.30
2019-02-17T18:52:30.102Z,6.20
2019-02-17T18:54:59.394Z,6.10
2019-02-17T18:57:28.710Z,6.00
2019-02-17T18:59:57.696Z,6.00
2019-02-17T19:02:26.941Z,5.90
2019-02-17T19:04:56.027Z,5.80
2019-02-17T19:07:25.352Z,5.70
2019-02-17T19:09:54.443Z,5.60
2019-02-17T19:12:23.603Z,5.60
2019-02-17T19:14:52.857Z,5.50
2019-02-17T19:17:22.340Z,5.40
2019-02-17T19:19:51.390Z,5.40
2019-02-17T19:22:20.540Z,5.30
2019-02-17T19:24:49.911Z,5.20
2019-02-17T19:27:18.989Z,5.10
2019-02-17T19:29:48.136Z,5.10
2019-02-17T19:32:17.383Z,5.00
2019-02-17T19:34:46.783Z,4.90
2019-02-17T19:37:15.802Z,4.90
2019-02-17T19:39:44.884Z,4.80
2019-02-17T19:42:14.018Z,4.80
2019-02-17T19:44:43.415Z,4.70
2019-02-17T19:47:12.538Z,4.70
2019-02-17T19:49:41.740Z,4.60
2019-02-17T19:52:11.543Z,4.60
2019-02-17T19:54:41.769Z,4.50
2019-02-17T19:57:11.136Z,4.50
2019-02-17T19:59:41.686Z,4.40
2019-02-17T20:02:11.395Z,4.40
2019-02-17T20:04:46.066Z,4.40
2019-02-17T20:07:15.273Z,4.30
2019-02-17T20:09:44.410Z,4.30
2019-02-17T20:12:13.393Z,4.20
2019-02-17T20:14:42.514Z,4.20
2019-02-17T20:17:11.658Z,4.20
2019-02-17T20:19:40.827Z,4.30
2019-02-17T20:22:09.953Z,4.40
2019-02-17T20:24:39.245Z,4.40
2019-02-17T20:27:08.799Z,4.30
2019-02-17T20:29:38.074Z,4.20
2019-02-17T20:32:07.488Z,4.10
2019-02-17T20:34:37.173Z,4.00
2019-02-17T20:37:06.558Z,3.90
2019-02-17T20:39:35.556Z,3.80
2019-02-17T20:42:04.731Z,3.80
2019-02-17T20:44:33.987Z,3.70
2019-02-17T20:47:03.511Z,3.70
2019-02-17T20:49:32.870Z,3.60
2019-02-17T20:52:01.954Z,3.50
2019-02-17T20:54:31.035Z,3.50
2019-02-17T20:56:59.963Z,3.40
2019-02-17T20:59:29.042Z,3.40
2019-02-17T21:01:58.302Z,3.30
2019-02-17T21:04:27.608Z,3.30
2019-02-17T21:06:57.044Z,3.30
2019-02-17T21:09:26.227Z,3.20
2019-02-17T21:11:55.423Z,3.20
2019-02-17T21:14:24.939Z,3.20
2019-02-17T21:16:54.062Z,3.10
2019-02-17T21:19:23.146Z,3.10
2019-02-17T21:21:56.925Z,3.10
2019-02-17T21:24:26.033Z,3.00
2019-02-17T21:26:55.167Z,3.00
2019-02-17T21:29:24.316Z,3.00
2019-02-17T21:31:53.456Z,2.90
2019-02-17T21:34:22.721Z,2.90
2019-02-17T21:36:51.841Z,2.90
2019-02-17T21:39:20.978Z,2.90
2019-02-17T21:41:50.053Z,3.00
2019-02-17T21:44:19.170Z,2.90
2019-02-17T21:46:48.391Z,2.90
2019-02-17T21:49:17.417Z,2.90
2019-02-17T21:51:48.902Z,3.00
2019-02-17T21:54:18.247Z,2.90
2019-02-17T21:56:47.320Z,2.90
2019-02-17T21:59:16.440Z,2.80
2019-02-17T22:01:46.014Z,2.80
2019-02-17T22:04:17.555Z,2.70
2019-02-17T22:06:46.704Z,2.60
2019-02-17T22:09:15.884Z,2.60
2019-02-17T22:11:45.011Z,2.50
2019-02-17T22:14:14.110Z,2.50
2019-02-17T22:16:43.235Z,2.50
2019-02-17T22:19:12.503Z,2.50
2019-02-17T22:21:41.566Z,2.40
2019-02-17T22:24:10.684Z,2.40
2019-02-17T22:26:39.855Z,2.30
2019-02-17T22:29:09.009Z,2.30
2019-02-17T22:31:38.221Z,2.30
2019-02-17T22:34:07.375Z,2.30
2019-02-17T22:36:43.474Z,2.20
2019-02-17T22:39:07.482Z,2.20
2019-02-17T22:41:36.578Z,2.20
2019-02-17T22:44:05.837Z,2.20
2019-02-17T22:46:34.957Z,2.10
2019-02-17T22:49:04.104Z,2.10
2019-02-17T22:51:33.160Z,2.00
2019-02-17T22:54:02.236Z,2.00
2019-02-17T22:56:31.352Z,1.90
2019-02-17T22:59:00.416Z,1.90
2019-02-17T23:01:33.536Z,1.80
2019-02-17T23:04:02.616Z,1.80
2019-02-17T23:06:31.696Z,1.80
2019-02-17T23:09:00.834Z,1.80
2019-02-17T23:11:31.468Z,1.80
2019-02-17T23:14:00.617Z,1.70
2019-02-17T23:16:29.744Z,1.70
2019-02-17T23:18:58.867Z,1.60
2019-02-17T23:21:28.036Z,1.60
2019-02-17T23:23:57.318Z,1.60
2019-02-17T23:26:26.329Z,1.60
2019-02-17T23:28:55.446Z,1.60
2019-02-17T23:31:24.556Z,1.60
2019-02-17T23:33:53.631Z,1.60
2019-02-17T23:36:22.897Z,1.60
2019-02-17T23:38:51.967Z,1.60
2019-02-17T23:41:21.071Z,1.60
2019-02-17T23:43:50.215Z,1.60
2019-02-17T23:46:19.354Z,1.60
2019-02-17T23:48:48.404Z,1.60
2019-02-17T23:51:17.466Z,1.70
2019-02-17T23:53:46.439Z,1.70
2019-02-17T23:56:15.500Z,1.70
2019-02-17T23:58:44.651Z,1.70
